createdAt,value
2022-11-14T00:01:48.139Z,33.73
2022-11-14T00:07:14.764Z,33.37
2022-11-14T00:12:55.496Z,33.93
2022-11-14T00:18:24.540Z,32.27
2022-11-14T00:23:57.748Z,43.47
2022-11-14T00:29:27.152Z,32.40
2022-11-14T05:31:04.902Z,30.40
2022-11-14T05:36:17.509Z,33.47
2022-11-14T05:41:20.623Z,23.10
2022-11-14T05:46:23.527Z,22.13
2022-11-14T05:51:26.383Z,23.17
2022-11-14T05:56:29.266Z,29.33
2022-11-14T06:01:32.234Z,27.80
2022-11-14T06:06:35.216Z,29.13
2022-11-14T06:11:38.112Z,26.10
2022-11-14T06:16:41.025Z,30.80
2022-11-14T06:21:43.929Z,25.33
2022-11-14T06:26:46.709Z,23.77
2022-11-14T06:31:49.468Z,24.03
2022-11-14T06:36:54.901Z,24.50
2022-11-14T06:41:57.783Z,24.80
2022-11-14T06:47:02.201Z,24.73
2022-11-14T06:52:05.125Z,28.10
2022-11-14T06:57:08.077Z,23.47
2022-11-14T07:02:20.478Z,21.60
2022-11-14T07:07:24.811Z,22.23
2022-11-14T07:12:29.568Z,19.37
2022-11-14T07:17:34.580Z,19.37
2022-11-14T07:22:37.360Z,18.10
2022-11-14T07:27:40.569Z,18.47
2022-11-14T07:32:43.388Z,17.10
2022-11-14T07:37:46.176Z,24.03
2022-11-14T07:42:48.979Z,25.80
2022-11-14T07:47:55.969Z,23.27
2022-11-14T07:52:58.979Z,19.90
2022-11-14T07:58:01.870Z,19.87
2022-11-14T08:03:06.404Z,22.23
2022-11-14T08:08:09.141Z,23.20
2022-11-14T08:18:34.926Z,21.23
2022-11-14T08:23:38.825Z,25.67
2022-11-14T08:28:41.634Z,24.40
2022-11-14T08:33:44.435Z,24.80
2022-11-14T08:38:48.689Z,26.47
2022-11-14T08:43:54.158Z,24.03
2022-11-14T08:48:56.947Z,24.63
2022-11-14T08:53:59.729Z,24.17
2022-11-14T08:59:05.964Z,26.13
2022-11-14T09:04:09.156Z,26.00
2022-11-14T09:09:12.088Z,20.57
2022-11-14T09:14:14.865Z,26.33
2022-11-14T09:19:17.726Z,25.40
2022-11-14T09:24:20.618Z,24.80
2022-11-14T09:29:23.367Z,30.30
2022-11-14T09:34:26.167Z,28.37
2022-11-14T09:39:28.904Z,25.17
2022-11-14T09:44:50.698Z,25.50
2022-11-14T09:49:56.586Z,28.80
2022-11-14T09:55:36.905Z,25.20
2022-11-14T10:00:52.373Z,27.50
2022-11-14T10:06:30.279Z,26.40
2022-11-14T10:11:45.037Z,31.30
2022-11-14T10:17:24.707Z,30.77
2022-11-14T10:23:15.449Z,32.87
2022-11-14T10:28:39.951Z,31.30
2022-11-14T10:34:04.463Z,31.90
2022-11-14T10:39:22.639Z,30.13
2022-11-14T10:44:37.209Z,31.17
2022-11-14T10:49:40.092Z,32.90
2022-11-14T10:54:46.418Z,30.30
2022-11-14T10:59:49.577Z,31.83
2022-11-14T11:04:52.362Z,34.23
2022-11-14T11:10:19.224Z,32.97
2022-11-14T11:15:24.167Z,29.30
2022-11-14T11:20:43.046Z,32.90
2022-11-14T11:25:45.853Z,40.23
2022-11-14T11:30:57.449Z,41.50
2022-11-14T11:36:11.341Z,44.63
2022-11-14T11:46:59.188Z,41.77
2022-11-14T11:52:17.426Z,41.93
2022-11-14T11:57:25.208Z,34.33
2022-11-14T12:02:29.411Z,40.00
2022-11-14T12:07:39.470Z,40.97
2022-11-14T12:12:45.363Z,43.10
2022-11-14T12:18:12.819Z,40.13
2022-11-14T12:23:33.352Z,45.00
2022-11-14T12:28:48.449Z,45.73
2022-11-14T12:33:59.482Z,43.93
2022-11-14T12:39:02.963Z,41.33
2022-11-14T12:44:35.356Z,54.47
2022-11-14T12:49:53.621Z,58.43
2022-11-14T12:54:56.521Z,39.37
2022-11-14T13:00:04.585Z,36.07
2022-11-14T13:05:38.789Z,42.50
2022-11-14T13:10:42.076Z,41.13
2022-11-14T13:16:32.081Z,43.50
2022-11-14T13:21:47.254Z,38.70
2022-11-14T13:26:54.186Z,37.80
2022-11-14T13:31:57.400Z,48.37
2022-11-14T13:37:29.352Z,37.37
2022-11-14T13:42:53.328Z,35.03
2022-11-14T13:48:19.623Z,34.10
2022-11-14T13:53:26.705Z,29.27
2022-11-14T13:58:35.509Z,28.33
2022-11-14T14:04:02.540Z,26.80
2022-11-14T14:09:38.896Z,23.97
2022-11-14T14:15:07.187Z,23.03
2022-11-14T14:20:43.820Z,22.27
2022-11-14T14:26:15.428Z,24.63
2022-11-14T14:31:27.982Z,22.57
2022-11-14T14:36:32.601Z,29.50
2022-11-14T14:41:35.752Z,25.50
2022-11-14T14:46:38.799Z,27.10
2022-11-14T14:51:42.891Z,23.37
2022-11-14T14:57:00.104Z,31.50
2022-11-14T15:02:03.229Z,31.30
2022-11-14T15:07:08.798Z,28.33
2022-11-14T15:12:12.055Z,31.17
2022-11-14T15:17:14.979Z,29.27
2022-11-14T15:22:21.115Z,32.80
2022-11-14T15:27:23.990Z,33.17
2022-11-14T15:32:26.948Z,38.43
2022-11-14T15:37:29.722Z,34.07
2022-11-14T15:42:34.088Z,32.80
2022-11-14T15:47:40.161Z,30.23
2022-11-14T15:53:06.575Z,35.40
2022-11-14T15:58:27.680Z,36.40
2022-11-14T16:03:32.050Z,31.43
2022-11-14T16:08:35.207Z,32.43
2022-11-14T16:13:38.163Z,27.57
2022-11-14T16:18:43.933Z,32.60
2022-11-14T16:23:47.296Z,28.50
2022-11-14T16:28:50.177Z,29.30
2022-11-14T16:33:53.191Z,31.77
2022-11-14T16:39:01.355Z,28.73
2022-11-14T16:44:04.316Z,32.03
2022-11-14T16:49:07.242Z,34.00
2022-11-14T16:54:16.235Z,34.50
2022-11-14T16:59:19.238Z,34.03
2022-11-14T17:04:22.217Z,34.63
2022-11-14T17:09:27.295Z,32.90
2022-11-14T17:14:30.185Z,33.63
2022-11-14T17:19:33.191Z,37.37
2022-11-14T17:24:36.173Z,34.50
2022-11-14T17:29:43.780Z,33.20
2022-11-14T17:34:46.679Z,35.23
2022-11-14T17:39:49.498Z,33.53
2022-11-14T17:44:53.094Z,32.90
2022-11-14T17:49:56.038Z,36.80
2022-11-14T17:54:59.009Z,37.47
2022-11-14T18:00:03.393Z,44.40
2022-11-14T18:05:06.814Z,38.07
2022-11-14T18:10:10.023Z,33.70
2022-11-14T18:15:15.142Z,34.23
2022-11-14T18:20:18.144Z,32.37
2022-11-14T18:25:21.065Z,29.07
2022-11-14T18:35:58.713Z,33.87
2022-11-14T18:41:07.603Z,32.57
2022-11-14T18:46:15.350Z,30.50
2022-11-14T18:51:20.538Z,29.77
2022-11-14T18:56:25.676Z,30.60
2022-11-14T19:01:32.100Z,32.10
2022-11-14T19:06:36.984Z,43.77
2022-11-14T19:11:58.588Z,40.80
2022-11-14T19:17:02.743Z,31.60
2022-11-14T19:22:06.776Z,38.63
2022-11-14T19:27:14.525Z,40.00
2022-11-14T19:32:17.461Z,38.47
2022-11-14T19:37:20.491Z,42.13
2022-11-14T19:42:23.494Z,36.47
2022-11-14T19:47:26.410Z,37.97
2022-11-14T19:52:31.961Z,38.77
2022-11-14T19:57:34.854Z,37.20
2022-11-14T20:02:40.627Z,32.60
2022-11-14T20:07:43.500Z,32.80
2022-11-14T20:12:46.314Z,37.90
2022-11-14T20:17:49.135Z,33.07
2022-11-14T20:22:52.072Z,33.13
2022-11-14T20:27:55.055Z,32.63
2022-11-14T20:32:57.944Z,32.07
2022-11-14T20:38:04.444Z,36.80
2022-11-14T20:43:09.309Z,31.73
2022-11-14T20:48:14.364Z,33.63
2022-11-14T20:53:21.244Z,38.47
2022-11-14T20:58:33.394Z,36.87
2022-11-14T21:03:36.667Z,31.60
2022-11-14T21:08:40.128Z,29.77
2022-11-14T21:13:58.899Z,32.03
2022-11-14T21:19:04.866Z,31.43
2022-11-14T21:24:07.920Z,32.70
2022-11-14T21:29:13.173Z,33.93
2022-11-14T21:34:19.818Z,28.90
2022-11-14T21:39:22.873Z,32.20
2022-11-14T21:44:25.653Z,30.40
2022-11-14T21:49:30.365Z,33.53
2022-11-14T21:54:33.303Z,32.67
2022-11-14T21:59:36.389Z,30.87
2022-11-14T22:04:39.317Z,37.17
2022-11-14T22:09:45.330Z,37.73
2022-11-14T22:14:48.408Z,40.77
2022-11-14T22:19:51.271Z,36.63
2022-11-14T22:24:54.172Z,40.83
2022-11-14T22:29:57.111Z,43.07
2022-11-14T22:34:59.885Z,36.67
2022-11-14T22:40:14.667Z,46.77
2022-11-14T22:45:33.604Z,37.37
2022-11-14T22:50:43.200Z,40.90
2022-11-14T22:55:53.443Z,41.10
2022-11-14T23:00:59.960Z,44.10
2022-11-14T23:06:27.252Z,48.07
2022-11-14T23:11:39.756Z,39.77
2022-11-14T23:17:03.112Z,38.43
2022-11-14T23:22:32.448Z,33.33
2022-11-14T23:27:41.386Z,33.00
2022-11-14T23:32:50.620Z,28.27
2022-11-14T23:38:04.912Z,32.73
2022-11-14T23:43:21.772Z,29.80
2022-11-14T23:48:32.352Z,32.57
2022-11-14T23:53:54.868Z,33.17
2022-11-14T23:59:07.389Z,30.23
